sensor_id;sensor_type;location;lat;lon;timestamp;P1;durP1;ratioP1;P2;durP2;ratioP2
30062;SDS011;16889;67.864;24.990;2022-12-07T00:03:04;0.45;;;0.40;;
30062;SDS011;16889;67.864;24.990;2022-12-07T00:07:50;6.80;;;0.57;;
30062;SDS011;16889;67.864;24.990;2022-12-07T00:12:36;5.60;;;0.60;;
30062;SDS011;16889;67.864;24.990;2022-12-07T00:17:22;0.40;;;0.40;;
30062;SDS011;16889;67.864;24.990;2022-12-07T00:22:08;2.63;;;0.70;;
30062;SDS011;16889;67.864;24.990;2022-12-07T00:26:53;1.60;;;0.35;;
30062;SDS011;16889;67.864;24.990;2022-12-07T00:31:39;3.78;;;0.75;;
30062;SDS011;16889;67.864;24.990;2022-12-07T00:36:25;2.08;;;0.50;;
30062;SDS011;16889;67.864;24.990;2022-12-07T00:41:12;0.85;;;0.50;;
30062;SDS011;16889;67.864;24.990;2022-12-07T00:46:03;4.00;;;0.70;;
30062;SDS011;16889;67.864;24.990;2022-12-07T00:50:50;1.65;;;0.50;;
30062;SDS011;16889;67.864;24.990;2022-12-07T00:55:36;3.60;;;0.60;;
30062;SDS011;16889;67.864;24.990;2022-12-07T01:00:22;1.38;;;0.45;;
30062;SDS011;16889;67.864;24.990;2022-12-07T01:05:08;1.92;;;0.55;;
30062;SDS011;16889;67.864;24.990;2022-12-07T01:09:54;1.35;;;0.40;;
30062;SDS011;16889;67.864;24.990;2022-12-07T01:14:41;0.73;;;0.50;;
30062;SDS011;16889;67.864;24.990;2022-12-07T01:19:27;1.05;;;0.40;;
30062;SDS011;16889;67.864;24.990;2022-12-07T01:24:13;2.25;;;0.70;;
30062;SDS011;16889;67.864;24.990;2022-12-07T01:28:59;1.45;;;0.60;;
30062;SDS011;16889;67.864;24.990;2022-12-07T01:33:47;3.63;;;0.63;;
30062;SDS011;16889;67.864;24.990;2022-12-07T01:38:36;2.90;;;0.70;;
30062;SDS011;16889;67.864;24.990;2022-12-07T01:43:22;1.42;;;0.75;;
30062;SDS011;16889;67.864;24.990;2022-12-07T01:48:13;1.73;;;0.52;;
30062;SDS011;16889;67.864;24.990;2022-12-07T01:53:03;5.30;;;0.65;;
30062;SDS011;16889;67.864;24.990;2022-12-07T01:57:52;0.85;;;0.50;;
30062;SDS011;16889;67.864;24.990;2022-12-07T02:02:47;0.57;;;0.40;;
30062;SDS011;16889;67.864;24.990;2022-12-07T02:08:03;1.42;;;0.38;;
30062;SDS011;16889;67.864;24.990;2022-12-07T02:12:57;3.47;;;0.65;;
30062;SDS011;16889;67.864;24.990;2022-12-07T02:17:52;2.25;;;0.50;;
30062;SDS011;16889;67.864;24.990;2022-12-07T02:23:04;3.38;;;1.00;;
30062;SDS011;16889;67.864;24.990;2022-12-07T02:28:19;0.52;;;0.40;;
30062;SDS011;16889;67.864;24.990;2022-12-07T02:33:26;3.95;;;0.70;;
30062;SDS011;16889;67.864;24.990;2022-12-07T02:38:26;3.30;;;0.80;;
30062;SDS011;16889;67.864;24.990;2022-12-07T02:43:24;2.42;;;0.80;;
30062;SDS011;16889;67.864;24.990;2022-12-07T02:48:12;4.20;;;0.63;;
30062;SDS011;16889;67.864;24.990;2022-12-07T02:53:01;5.78;;;0.70;;
30062;SDS011;16889;67.864;24.990;2022-12-07T03:12:46;1.10;;;0.52;;
30062;SDS011;16889;67.864;24.990;2022-12-07T03:17:44;2.85;;;0.60;;
30062;SDS011;16889;67.864;24.990;2022-12-07T03:22:32;1.98;;;0.77;;
30062;SDS011;16889;67.864;24.990;2022-12-07T03:27:34;2.75;;;0.60;;
30062;SDS011;16889;67.864;24.990;2022-12-07T03:32:28;1.33;;;0.60;;
30062;SDS011;16889;67.864;24.990;2022-12-07T03:37:37;1.33;;;0.60;;
30062;SDS011;16889;67.864;24.990;2022-12-07T03:42:34;3.20;;;0.85;;
30062;SDS011;16889;67.864;24.990;2022-12-07T03:52:18;6.43;;;1.10;;
30062;SDS011;16889;67.864;24.990;2022-12-07T03:57:11;1.58;;;0.80;;
30062;SDS011;16889;67.864;24.990;2022-12-07T04:02:02;3.50;;;1.05;;
30062;SDS011;16889;67.864;24.990;2022-12-07T04:06:50;4.07;;;0.70;;
30062;SDS011;16889;67.864;24.990;2022-12-07T04:11:36;4.97;;;1.10;;
30062;SDS011;16889;67.864;24.990;2022-12-07T04:16:22;1.77;;;0.70;;
30062;SDS011;16889;67.864;24.990;2022-12-07T04:21:08;6.67;;;0.93;;
30062;SDS011;16889;67.864;24.990;2022-12-07T04:25:54;1.27;;;0.60;;
30062;SDS011;16889;67.864;24.990;2022-12-07T04:30:39;4.07;;;0.73;;
30062;SDS011;16889;67.864;24.990;2022-12-07T04:35:25;5.23;;;0.70;;
30062;SDS011;16889;67.864;24.990;2022-12-07T04:40:11;4.73;;;0.60;;
30062;SDS011;16889;67.864;24.990;2022-12-07T04:44:59;1.17;;;0.50;;
30062;SDS011;16889;67.864;24.990;2022-12-07T04:49:45;2.60;;;0.60;;
30062;SDS011;16889;67.864;24.990;2022-12-07T04:54:31;2.67;;;0.73;;
30062;SDS011;16889;67.864;24.990;2022-12-07T04:59:17;2.10;;;0.63;;
30062;SDS011;16889;67.864;24.990;2022-12-07T05:04:03;4.17;;;0.70;;
30062;SDS011;16889;67.864;24.990;2022-12-07T05:08:49;4.10;;;0.80;;
30062;SDS011;16889;67.864;24.990;2022-12-07T05:13:36;2.67;;;0.50;;
30062;SDS011;16889;67.864;24.990;2022-12-07T05:18:22;3.60;;;1.03;;
30062;SDS011;16889;67.864;24.990;2022-12-07T05:23:08;1.97;;;0.70;;
30062;SDS011;16889;67.864;24.990;2022-12-07T05:27:55;4.88;;;0.95;;
30062;SDS011;16889;67.864;24.990;2022-12-07T05:32:42;1.88;;;0.60;;
30062;SDS011;16889;67.864;24.990;2022-12-07T05:37:27;1.17;;;0.97;;
30062;SDS011;16889;67.864;24.990;2022-12-07T05:42:13;1.20;;;0.63;;
30062;SDS011;16889;67.864;24.990;2022-12-07T05:47:00;3.63;;;0.60;;
30062;SDS011;16889;67.864;24.990;2022-12-07T05:51:46;4.03;;;0.60;;
30062;SDS011;16889;67.864;24.990;2022-12-07T05:56:32;1.70;;;0.63;;
30062;SDS011;16889;67.864;24.990;2022-12-07T06:01:17;2.53;;;0.80;;
30062;SDS011;16889;67.864;24.990;2022-12-07T06:06:03;3.37;;;0.70;;
30062;SDS011;16889;67.864;24.990;2022-12-07T06:10:50;2.63;;;0.50;;
30062;SDS011;16889;67.864;24.990;2022-12-07T06:15:55;2.22;;;0.50;;
30062;SDS011;16889;67.864;24.990;2022-12-07T06:20:41;1.67;;;0.50;;
30062;SDS011;16889;67.864;24.990;2022-12-07T06:25:27;2.00;;;0.63;;
30062;SDS011;16889;67.864;24.990;2022-12-07T06:30:13;6.53;;;0.43;;
30062;SDS011;16889;67.864;24.990;2022-12-07T06:34:59;5.30;;;0.50;;
30062;SDS011;16889;67.864;24.990;2022-12-07T06:39:46;3.97;;;0.80;;
30062;SDS011;16889;67.864;24.990;2022-12-07T06:44:32;3.23;;;0.70;;
30062;SDS011;16889;67.864;24.990;2022-12-07T06:49:18;12.17;;;1.10;;
30062;SDS011;16889;67.864;24.990;2022-12-07T06:54:04;5.73;;;0.90;;
30062;SDS011;16889;67.864;24.990;2022-12-07T06:58:50;13.40;;;0.90;;
30062;SDS011;16889;67.864;24.990;2022-12-07T07:03:36;8.43;;;0.90;;
30062;SDS011;16889;67.864;24.990;2022-12-07T07:08:22;3.25;;;0.77;;
30062;SDS011;16889;67.864;24.990;2022-12-07T07:13:08;5.43;;;0.83;;
30062;SDS011;16889;67.864;24.990;2022-12-07T07:17:54;7.93;;;1.50;;
30062;SDS011;16889;67.864;24.990;2022-12-07T07:22:41;7.97;;;0.93;;
30062;SDS011;16889;67.864;24.990;2022-12-07T07:27:27;7.88;;;1.05;;
30062;SDS011;16889;67.864;24.990;2022-12-07T07:32:13;9.27;;;1.00;;
30062;SDS011;16889;67.864;24.990;2022-12-07T07:36:59;3.13;;;0.90;;
30062;SDS011;16889;67.864;24.990;2022-12-07T07:41:46;7.38;;;1.20;;
30062;SDS011;16889;67.864;24.990;2022-12-07T07:46:32;25.73;;;1.60;;
30062;SDS011;16889;67.864;24.990;2022-12-07T07:51:18;6.73;;;1.10;;
30062;SDS011;16889;67.864;24.990;2022-12-07T07:56:04;13.70;;;1.13;;
30062;SDS011;16889;67.864;24.990;2022-12-07T08:00:50;10.95;;;1.02;;
30062;SDS011;16889;67.864;24.990;2022-12-07T08:05:37;10.63;;;1.47;;
30062;SDS011;16889;67.864;24.990;2022-12-07T08:10:23;8.20;;;1.00;;
30062;SDS011;16889;67.864;24.990;2022-12-07T08:15:09;12.50;;;1.48;;
30062;SDS011;16889;67.864;24.990;2022-12-07T08:19:56;13.18;;;1.88;;
30062;SDS011;16889;67.864;24.990;2022-12-07T08:24:41;13.38;;;1.23;;
30062;SDS011;16889;67.864;24.990;2022-12-07T08:29:28;12.90;;;1.50;;
30062;SDS011;16889;67.864;24.990;2022-12-07T08:34:14;9.07;;;0.90;;
30062;SDS011;16889;67.864;24.990;2022-12-07T08:39:00;17.17;;;1.63;;
30062;SDS011;16889;67.864;24.990;2022-12-07T08:43:46;10.30;;;1.65;;
30062;SDS011;16889;67.864;24.990;2022-12-07T08:48:32;16.67;;;1.95;;
30062;SDS011;16889;67.864;24.990;2022-12-07T08:53:19;17.15;;;2.20;;
30062;SDS011;16889;67.864;24.990;2022-12-07T08:58:06;15.83;;;2.20;;
30062;SDS011;16889;67.864;24.990;2022-12-07T09:02:52;16.83;;;1.75;;
30062;SDS011;16889;67.864;24.990;2022-12-07T09:07:39;11.60;;;1.48;;
30062;SDS011;16889;67.864;24.990;2022-12-07T09:17:12;23.77;;;2.20;;
30062;SDS011;16889;67.864;24.990;2022-12-07T09:21:58;12.13;;;2.05;;
30062;SDS011;16889;67.864;24.990;2022-12-07T09:26:44;14.43;;;2.17;;
30062;SDS011;16889;67.864;24.990;2022-12-07T09:31:30;9.00;;;1.95;;
30062;SDS011;16889;67.864;24.990;2022-12-07T09:36:16;13.15;;;1.90;;
30062;SDS011;16889;67.864;24.990;2022-12-07T09:41:06;15.27;;;2.40;;
30062;SDS011;16889;67.864;24.990;2022-12-07T09:45:53;13.70;;;2.65;;
30062;SDS011;16889;67.864;24.990;2022-12-07T09:50:42;17.25;;;2.60;;
30062;SDS011;16889;67.864;24.990;2022-12-07T09:55:28;9.43;;;2.08;;
30062;SDS011;16889;67.864;24.990;2022-12-07T10:00:17;15.50;;;2.28;;
30062;SDS011;16889;67.864;24.990;2022-12-07T10:05:07;20.65;;;2.40;;
30062;SDS011;16889;67.864;24.990;2022-12-07T10:10:02;18.00;;;2.08;;
30062;SDS011;16889;67.864;24.990;2022-12-07T10:19:51;16.63;;;2.97;;
30062;SDS011;16889;67.864;24.990;2022-12-07T10:24:53;13.60;;;2.67;;
30062;SDS011;16889;67.864;24.990;2022-12-07T10:29:39;13.23;;;2.40;;
30062;SDS011;16889;67.864;24.990;2022-12-07T10:34:34;12.43;;;2.20;;
30062;SDS011;16889;67.864;24.990;2022-12-07T10:39:22;26.60;;;4.10;;
30062;SDS011;16889;67.864;24.990;2022-12-07T10:44:08;18.75;;;2.92;;
30062;SDS011;16889;67.864;24.990;2022-12-07T10:49:27;22.20;;;3.28;;
30062;SDS011;16889;67.864;24.990;2022-12-07T10:54:27;30.25;;;3.22;;
30062;SDS011;16889;67.864;24.990;2022-12-07T11:14:26;21.35;;;3.55;;
30062;SDS011;16889;67.864;24.990;2022-12-07T11:19:42;18.55;;;3.40;;
30062;SDS011;16889;67.864;24.990;2022-12-07T11:39:41;19.08;;;3.38;;
30062;SDS011;16889;67.864;24.990;2022-12-07T11:54:46;19.52;;;3.20;;
30062;SDS011;16889;67.864;24.990;2022-12-07T11:59:39;19.83;;;3.15;;
30062;SDS011;16889;67.864;24.990;2022-12-07T12:04:34;18.35;;;2.90;;
30062;SDS011;16889;67.864;24.990;2022-12-07T12:09:34;21.02;;;3.92;;
30062;SDS011;16889;67.864;24.990;2022-12-07T12:19:41;17.52;;;3.50;;
30062;SDS011;16889;67.864;24.990;2022-12-07T12:24:30;20.55;;;3.80;;
30062;SDS011;16889;67.864;24.990;2022-12-07T12:29:29;20.55;;;3.75;;
30062;SDS011;16889;67.864;24.990;2022-12-07T12:34:30;16.90;;;3.78;;
30062;SDS011;16889;67.864;24.990;2022-12-07T12:39:16;21.00;;;4.60;;
30062;SDS011;16889;67.864;24.990;2022-12-07T12:49:21;13.75;;;3.88;;
30062;SDS011;16889;67.864;24.990;2022-12-07T12:54:23;17.20;;;3.67;;
30062;SDS011;16889;67.864;24.990;2022-12-07T12:59:24;14.85;;;3.58;;
30062;SDS011;16889;67.864;24.990;2022-12-07T13:04:24;15.85;;;3.42;;
30062;SDS011;16889;67.864;24.990;2022-12-07T13:09:21;15.30;;;3.25;;
30062;SDS011;16889;67.864;24.990;2022-12-07T13:24:26;12.10;;;3.35;;
30062;SDS011;16889;67.864;24.990;2022-12-07T13:29:17;11.52;;;3.05;;
30062;SDS011;16889;67.864;24.990;2022-12-07T13:44:07;13.02;;;3.00;;
30062;SDS011;16889;67.864;24.990;2022-12-07T13:48:59;8.52;;;2.70;;
30062;SDS011;16889;67.864;24.990;2022-12-07T13:53:49;15.95;;;3.45;;
30062;SDS011;16889;67.864;24.990;2022-12-07T13:58:37;16.58;;;2.95;;
30062;SDS011;16889;67.864;24.990;2022-12-07T14:03:27;14.25;;;2.97;;
30062;SDS011;16889;67.864;24.990;2022-12-07T14:13:50;14.57;;;3.03;;
30062;SDS011;16889;67.864;24.990;2022-12-07T14:18:25;14.95;;;3.28;;
30062;SDS011;16889;67.864;24.990;2022-12-07T14:23:26;13.43;;;2.63;;
30062;SDS011;16889;67.864;24.990;2022-12-07T14:28:29;11.52;;;2.60;;
30062;SDS011;16889;67.864;24.990;2022-12-07T14:33:16;11.00;;;2.75;;
30062;SDS011;16889;67.864;24.990;2022-12-07T14:43:34;8.70;;;2.25;;
30062;SDS011;16889;67.864;24.990;2022-12-07T14:48:00;8.75;;;1.85;;
30062;SDS011;16889;67.864;24.990;2022-12-07T14:52:48;12.73;;;2.42;;
30062;SDS011;16889;67.864;24.990;2022-12-07T14:57:44;6.82;;;2.08;;
30062;SDS011;16889;67.864;24.990;2022-12-07T15:02:30;7.28;;;2.10;;
30062;SDS011;16889;67.864;24.990;2022-12-07T15:07:19;6.00;;;1.57;;
30062;SDS011;16889;67.864;24.990;2022-12-07T15:12:06;5.05;;;1.60;;
30062;SDS011;16889;67.864;24.990;2022-12-07T15:16:52;2.80;;;1.10;;
30062;SDS011;16889;67.864;24.990;2022-12-07T15:21:38;3.47;;;1.00;;
30062;SDS011;16889;67.864;24.990;2022-12-07T15:26:24;3.33;;;1.20;;
30062;SDS011;16889;67.864;24.990;2022-12-07T15:31:14;1.30;;;0.60;;
30062;SDS011;16889;67.864;24.990;2022-12-07T15:36:01;1.92;;;0.65;;
30062;SDS011;16889;67.864;24.990;2022-12-07T15:40:47;1.58;;;0.73;;
30062;SDS011;16889;67.864;24.990;2022-12-07T15:45:34;0.50;;;0.50;;
30062;SDS011;16889;67.864;24.990;2022-12-07T15:50:19;9.18;;;0.75;;
30062;SDS011;16889;67.864;24.990;2022-12-07T15:55:06;8.80;;;1.10;;
30062;SDS011;16889;67.864;24.990;2022-12-07T15:59:52;4.25;;;1.33;;
30062;SDS011;16889;67.864;24.990;2022-12-07T16:04:38;4.22;;;1.45;;
30062;SDS011;16889;67.864;24.990;2022-12-07T16:09:25;5.68;;;1.70;;
30062;SDS011;16889;67.864;24.990;2022-12-07T16:14:11;7.80;;;2.47;;
30062;SDS011;16889;67.864;24.990;2022-12-07T16:18:57;8.52;;;2.70;;
30062;SDS011;16889;67.864;24.990;2022-12-07T16:23:44;8.75;;;2.28;;
30062;SDS011;16889;67.864;24.990;2022-12-07T16:28:30;12.03;;;2.83;;
30062;SDS011;16889;67.864;24.990;2022-12-07T16:33:16;8.98;;;2.10;;
30062;SDS011;16889;67.864;24.990;2022-12-07T16:38:02;9.80;;;1.92;;
30062;SDS011;16889;67.864;24.990;2022-12-07T16:42:47;6.82;;;1.63;;
30062;SDS011;16889;67.864;24.990;2022-12-07T16:47:36;6.43;;;1.77;;
30062;SDS011;16889;67.864;24.990;2022-12-07T16:52:23;6.70;;;1.65;;
30062;SDS011;16889;67.864;24.990;2022-12-07T16:57:09;3.50;;;1.38;;
30062;SDS011;16889;67.864;24.990;2022-12-07T17:18:58;6.95;;;2.20;;
30062;SDS011;16889;67.864;24.990;2022-12-07T17:23:44;4.25;;;1.52;;
30062;SDS011;16889;67.864;24.990;2022-12-07T17:28:35;3.50;;;1.45;;
30062;SDS011;16889;67.864;24.990;2022-12-07T17:33:22;6.97;;;1.45;;
30062;SDS011;16889;67.864;24.990;2022-12-07T17:38:07;5.20;;;1.20;;
30062;SDS011;16889;67.864;24.990;2022-12-07T17:42:53;3.08;;;1.10;;
30062;SDS011;16889;67.864;24.990;2022-12-07T17:47:40;3.92;;;1.40;;
30062;SDS011;16889;67.864;24.990;2022-12-07T17:52:26;3.40;;;1.15;;
30062;SDS011;16889;67.864;24.990;2022-12-07T17:57:30;2.40;;;0.80;;
30062;SDS011;16889;67.864;24.990;2022-12-07T18:02:16;1.95;;;0.90;;
30062;SDS011;16889;67.864;24.990;2022-12-07T18:07:02;2.22;;;0.60;;
30062;SDS011;16889;67.864;24.990;2022-12-07T18:11:50;5.38;;;1.23;;
30062;SDS011;16889;67.864;24.990;2022-12-07T18:16:36;3.03;;;0.82;;
30062;SDS011;16889;67.864;24.990;2022-12-07T18:21:25;2.10;;;0.60;;
30062;SDS011;16889;67.864;24.990;2022-12-07T18:26:12;2.60;;;0.68;;
30062;SDS011;16889;67.864;24.990;2022-12-07T18:30:59;1.67;;;0.70;;
30062;SDS011;16889;67.864;24.990;2022-12-07T18:35:45;2.85;;;0.60;;
30062;SDS011;16889;67.864;24.990;2022-12-07T18:40:32;1.08;;;0.68;;
30062;SDS011;16889;67.864;24.990;2022-12-07T18:45:18;0.80;;;0.57;;
30062;SDS011;16889;67.864;24.990;2022-12-07T18:50:04;2.33;;;1.13;;
30062;SDS011;16889;67.864;24.990;2022-12-07T18:54:50;1.13;;;0.60;;
30062;SDS011;16889;67.864;24.990;2022-12-07T18:59:36;2.00;;;0.80;;
30062;SDS011;16889;67.864;24.990;2022-12-07T19:04:33;1.80;;;0.60;;
30062;SDS011;16889;67.864;24.990;2022-12-07T19:09:19;2.30;;;0.70;;
30062;SDS011;16889;67.864;24.990;2022-12-07T19:14:05;2.47;;;0.80;;
30062;SDS011;16889;67.864;24.990;2022-12-07T19:18:51;1.00;;;0.50;;
30062;SDS011;16889;67.864;24.990;2022-12-07T19:23:37;0.55;;;0.40;;
30062;SDS011;16889;67.864;24.990;2022-12-07T19:28:23;0.43;;;0.40;;
30062;SDS011;16889;67.864;24.990;2022-12-07T19:33:09;1.65;;;0.50;;
30062;SDS011;16889;67.864;24.990;2022-12-07T19:37:54;1.50;;;0.55;;
30062;SDS011;16889;67.864;24.990;2022-12-07T19:42:40;0.60;;;0.60;;
30062;SDS011;16889;67.864;24.990;2022-12-07T19:47:26;1.20;;;0.60;;
30062;SDS011;16889;67.864;24.990;2022-12-07T19:52:13;1.95;;;0.50;;
30062;SDS011;16889;67.864;24.990;2022-12-07T19:56:59;0.80;;;0.60;;
30062;SDS011;16889;67.864;24.990;2022-12-07T20:01:45;1.05;;;0.52;;
30062;SDS011;16889;67.864;24.990;2022-12-07T20:06:31;1.77;;;0.60;;
30062;SDS011;16889;67.864;24.990;2022-12-07T20:11:18;1.17;;;0.68;;
30062;SDS011;16889;67.864;24.990;2022-12-07T20:16:23;1.52;;;0.50;;
30062;SDS011;16889;67.864;24.990;2022-12-07T20:21:09;0.50;;;0.50;;
30062;SDS011;16889;67.864;24.990;2022-12-07T20:26:00;2.33;;;0.80;;
30062;SDS011;16889;67.864;24.990;2022-12-07T20:30:49;1.13;;;0.60;;
30062;SDS011;16889;67.864;24.990;2022-12-07T20:35:36;1.90;;;0.70;;
30062;SDS011;16889;67.864;24.990;2022-12-07T20:40:22;5.00;;;0.80;;
30062;SDS011;16889;67.864;24.990;2022-12-07T20:45:08;1.23;;;0.60;;
30062;SDS011;16889;67.864;24.990;2022-12-07T20:49:56;1.38;;;0.50;;
30062;SDS011;16889;67.864;24.990;2022-12-07T20:54:42;1.15;;;0.60;;
30062;SDS011;16889;67.864;24.990;2022-12-07T20:59:28;1.58;;;0.50;;
30062;SDS011;16889;67.864;24.990;2022-12-07T21:04:14;0.82;;;0.60;;
30062;SDS011;16889;67.864;24.990;2022-12-07T21:09:00;0.88;;;0.45;;
30062;SDS011;16889;67.864;24.990;2022-12-07T21:13:46;1.80;;;0.57;;
30062;SDS011;16889;67.864;24.990;2022-12-07T21:18:32;0.63;;;0.43;;
30062;SDS011;16889;67.864;24.990;2022-12-07T21:23:18;2.13;;;0.63;;
30062;SDS011;16889;67.864;24.990;2022-12-07T21:28:04;0.73;;;0.50;;
30062;SDS011;16889;67.864;24.990;2022-12-07T21:32:50;1.83;;;0.50;;
30062;SDS011;16889;67.864;24.990;2022-12-07T21:37:36;0.60;;;0.47;;
30062;SDS011;16889;67.864;24.990;2022-12-07T21:42:23;0.57;;;0.50;;
30062;SDS011;16889;67.864;24.990;2022-12-07T21:47:09;0.93;;;0.52;;
30062;SDS011;16889;67.864;24.990;2022-12-07T21:51:55;0.95;;;0.40;;
30062;SDS011;16889;67.864;24.990;2022-12-07T21:56:41;0.40;;;0.40;;
30062;SDS011;16889;67.864;24.990;2022-12-07T22:01:30;2.67;;;0.52;;
30062;SDS011;16889;67.864;24.990;2022-12-07T22:06:22;0.57;;;0.40;;
30062;SDS011;16889;67.864;24.990;2022-12-07T22:11:10;0.93;;;0.55;;
30062;SDS011;16889;67.864;24.990;2022-12-07T22:20:43;1.23;;;0.60;;
30062;SDS011;16889;67.864;24.990;2022-12-07T22:25:28;2.05;;;0.40;;
30062;SDS011;16889;67.864;24.990;2022-12-07T22:30:14;1.20;;;0.50;;
30062;SDS011;16889;67.864;24.990;2022-12-07T22:35:01;2.22;;;0.60;;
30062;SDS011;16889;67.864;24.990;2022-12-07T22:39:47;0.60;;;0.40;;
30062;SDS011;16889;67.864;24.990;2022-12-07T22:44:33;0.57;;;0.40;;
30062;SDS011;16889;67.864;24.990;2022-12-07T22:49:19;0.55;;;0.40;;
30062;SDS011;16889;67.864;24.990;2022-12-07T22:54:05;1.33;;;0.40;;
30062;SDS011;16889;67.864;24.990;2022-12-07T22:58:53;0.40;;;0.40;;
30062;SDS011;16889;67.864;24.990;2022-12-07T23:03:39;0.98;;;0.65;;
30062;SDS011;16889;67.864;24.990;2022-12-07T23:08:26;1.37;;;0.50;;
30062;SDS011;16889;67.864;24.990;2022-12-07T23:13:12;0.40;;;0.40;;
30062;SDS011;16889;67.864;24.990;2022-12-07T23:18:22;0.65;;;0.65;;
30062;SDS011;16889;67.864;24.990;2022-12-07T23:23:08;1.23;;;0.47;;
30062;SDS011;16889;67.864;24.990;2022-12-07T23:27:54;2.15;;;0.40;;
30062;SDS011;16889;67.864;24.990;2022-12-07T23:32:40;0.82;;;0.30;;
30062;SDS011;16889;67.864;24.990;2022-12-07T23:37:26;0.40;;;0.40;;
30062;SDS011;16889;67.864;24.990;2022-12-07T23:42:12;0.40;;;0.30;;
30062;SDS011;16889;67.864;24.990;2022-12-07T23:46:58;0.95;;;0.70;;
30062;SDS011;16889;67.864;24.990;2022-12-07T23:51:44;0.30;;;0.30;;
30062;SDS011;16889;67.864;24.990;2022-12-07T23:56:31;0.40;;;0.40;;
